Darstellungsparameter: Aktuell verwendete Einstellungen:
Skalierung der Graphiken ... ?
xyx+y,   Skalierungsfaktor:      Skalierung: Modus: x, Faktor: 1
Darstellungszeitraum ... ?
Vom - - bis: - -   Zeitraum: 29.08.2007 - 28.09.2007
Min/Max/Avg-Anzeige ... ?
Zeige MMA aktuell
Zeige MMA Monat
Zeige MMA alles
Zeige --A aktuell
Zeige --A Monat
Zeige --A alles
Keine MMA-Anzeige
MMA:
Average (ber die Originaldaten)
MMA-Basis: 29.08.2007 - 28.09.2007
Quicknavigation für Darstellung... ?
Tage:      1T, 2T, 3T, 5T -1T -2T -3T -5T +1T +2T +3T +5T
Wochen: 1W, 2W, 3W -1W -2W -3W +1W +2W +3W
Monate: 1M, 3M, 6M -1M -3M -6M +1M +3M +6M
Jahre:    1J, 3J, 5J, 10J -1J -3J -5J -10J +1J +3J +5J +10J
Nutze für die Darstellung ... ?
Originaldaten oder ...
Mittelwerte Minima Maxima auf...
Stundenbasis Tagesbasis Wochenbasis
Monatsbasis Jahresbasis      Datenbasis: Mittelwerte auf Stundenbasis
Darstellen als:
Statistik (Auto) Statistik J:M      Darstellung:
Zur Graphik,    zurück zur Übersicht aller Sensoren.
 
Tabellarische Datenbersicht: ?
 
Sensor: Nr:Datum:Temp:Abs-Feuchte:Windchill:Wind:
Aussen-T/F 1 29-08-2007 00:00:00 14.1 C 7.6 g/m*3 14.1 C 0 km/h
2 29-08-2007 01:00:00 13.68 C 7.29 g/m*3 13.68 C 0 km/h
3 29-08-2007 02:00:00 13.54 C 7.06 g/m*3 13.54 C 0 km/h
4 29-08-2007 03:00:00 13.54 C 6.94 g/m*3 13.54 C 0 km/h
5 29-08-2007 04:00:00 13.18 C 6.72 g/m*3 13.18 C 0 km/h
6 29-08-2007 05:00:00 13.02 C 6.86 g/m*3 13.02 C 0 km/h
7 29-08-2007 06:00:00 12.62 C 6.89 g/m*3 12.62 C 0 km/h
8 29-08-2007 07:00:00 12.96 C 7.13 g/m*3 12.96 C 0 km/h
9 29-08-2007 08:00:00 13.94 C 7.23 g/m*3 13.94 C 0 km/h
10 29-08-2007 09:00:00 14.74 C 7.19 g/m*3 14.74 C 0 km/h
11 29-08-2007 10:00:00 15.7 C 7.12 g/m*3 15.7 C 0 km/h
12 29-08-2007 11:00:00 17.92 C 6.97 g/m*3 17.92 C 0 km/h
13 29-08-2007 12:00:00 19.64 C 6.6 g/m*3 19.64 C 0 km/h
14 29-08-2007 13:00:00 20.76 C 5.93 g/m*3 20.76 C 0 km/h
15 29-08-2007 14:00:00 23 C 5.34 g/m*3 23 C 0 km/h
16 29-08-2007 15:00:00 23.08 C 4.79 g/m*3 23.08 C 0 km/h
17 29-08-2007 16:00:00 24.3 C 4.43 g/m*3 24.3 C 0 km/h
18 29-08-2007 17:00:00 24.66 C 4.52 g/m*3 24.66 C 0 km/h
19 29-08-2007 18:00:00 23.56 C 4.67 g/m*3 23.56 C 0 km/h
20 29-08-2007 19:00:00 21.76 C 5.4 g/m*3 21.76 C 0 km/h
21 29-08-2007 20:00:00 18.92 C 5.9 g/m*3 18.92 C 0 km/h
22 29-08-2007 21:00:00 17.3 C 6.01 g/m*3 17.3 C 0 km/h
23 29-08-2007 22:00:00 15.04 C 6.27 g/m*3 15.04 C 0 km/h
24 29-08-2007 23:00:00 13.88 C 6.42 g/m*3 13.88 C 0 km/h
25 30-08-2007 00:00:00 12.86 C 6.45 g/m*3 12.86 C 0 km/h
Sensor: Nr:Datum:Temp:Abs-Feuchte:Windchill:Wind:
Aussen-T/F 26 30-08-2007 01:00:00 12.04 C 6.54 g/m*3 12.04 C 0 km/h
27 30-08-2007 02:00:00 10.96 C 6.63 g/m*3 10.96 C 0 km/h
28 30-08-2007 03:00:00 10 C 6.71 g/m*3 10 C 0 km/h
29 30-08-2007 04:00:00 9.38 C 6.76 g/m*3 9.38 C 0 km/h
30 30-08-2007 05:00:00 8.68 C 6.72 g/m*3 8.68 C 0 km/h
31 30-08-2007 06:00:00 8.1 C 6.79 g/m*3 8.1 C 0 km/h
32 30-08-2007 07:00:00 7.94 C 6.9 g/m*3 7.94 C 0 km/h
33 30-08-2007 08:00:00 8.6 C 7.18 g/m*3 8.6 C 0 km/h
34 30-08-2007 09:00:00 10.38 C 7.58 g/m*3 10.38 C 0 km/h
35 30-08-2007 10:00:00 13.44 C 7.48 g/m*3 13.44 C 0 km/h
36 30-08-2007 11:00:00 16.54 C 6.67 g/m*3 16.54 C 0 km/h
37 30-08-2007 12:00:00 18.14 C 5.95 g/m*3 18.14 C 0 km/h
38 30-08-2007 13:00:00 19.42 C 5.58 g/m*3 19.42 C 0 km/h
39 30-08-2007 14:00:00 20.92 C 5.14 g/m*3 20.92 C 0 km/h
40 30-08-2007 15:00:00 22.44 C 4.78 g/m*3 22.44 C 0 km/h
41 30-08-2007 16:00:00 23.22 C 4.7 g/m*3 23.22 C 0 km/h
42 30-08-2007 17:00:00 23.22 C 5.2 g/m*3 23.22 C 0 km/h
43 30-08-2007 18:00:00 20.62 C 5.95 g/m*3 20.62 C 0 km/h
44 30-08-2007 19:00:00 19.52 C 6.49 g/m*3 19.52 C 0 km/h
45 30-08-2007 20:00:00 18.76 C 6.75 g/m*3 18.76 C 0 km/h
46 30-08-2007 21:00:00 18.08 C 7.07 g/m*3 18.08 C 0 km/h
47 30-08-2007 22:00:00 17.82 C 7.54 g/m*3 17.82 C 0 km/h
48 30-08-2007 23:00:00 17.74 C 8.2 g/m*3 17.74 C 0 km/h
49 31-08-2007 00:00:00 17.3 C 8.87 g/m*3 17.3 C 0 km/h
50 31-08-2007 01:00:00 17.04 C 9.46 g/m*3 17.04 C 0 km/h
Sensor: Nr:Datum:Temp:Abs-Feuchte:Windchill:Wind:
Aussen-T/F 51 31-08-2007 02:00:00 16.86 C 9.7 g/m*3 16.86 C 0 km/h
52 31-08-2007 03:00:00 16.7 C 9.69 g/m*3 16.7 C 0 km/h
53 31-08-2007 04:00:00 16.72 C 9.76 g/m*3 16.72 C 0 km/h
54 31-08-2007 05:00:00 16.46 C 10 g/m*3 16.46 C 0 km/h
55 31-08-2007 06:00:00 15.84 C 10.61 g/m*3 15.84 C 0 km/h
56 31-08-2007 07:00:00 16.22 C 10.41 g/m*3 16.22 C 0 km/h
57 31-08-2007 08:00:00 16.96 C 10.1 g/m*3 16.96 C 0 km/h
58 31-08-2007 09:00:00 17.38 C 10.24 g/m*3 17.38 C 0 km/h
59 31-08-2007 10:00:00 16.5 C 11.12 g/m*3 16.5 C 0 km/h
60 31-08-2007 11:00:00 16 C 11.66 g/m*3 16 C 0 km/h
61 31-08-2007 12:00:00 16.64 C 12.06 g/m*3 16.64 C 0 km/h
62 31-08-2007 13:00:00 18.02 C 12.3 g/m*3 18.02 C 0 km/h
63 31-08-2007 14:00:00 19 C 11.96 g/m*3 19 C 0 km/h
64 31-08-2007 15:00:00 20.22 C 9.98 g/m*3 20.22 C 0 km/h
65 31-08-2007 16:00:00 20.98 C 8.56 g/m*3 20.98 C 0 km/h
66 31-08-2007 17:00:00 20.5 C 7.51 g/m*3 20.5 C 0 km/h
67 31-08-2007 18:00:00 19.92 C 7.22 g/m*3 19.92 C 0 km/h
68 31-08-2007 19:00:00 18.5 C 7.4 g/m*3 18.5 C 0 km/h
69 31-08-2007 20:00:00 17.96 C 8.15 g/m*3 17.96 C 0 km/h
70 31-08-2007 21:00:00 16.96 C 9.32 g/m*3 16.96 C 0 km/h
71 31-08-2007 22:00:00 16.82 C 9.36 g/m*3 16.82 C 0 km/h
72 31-08-2007 23:00:00 16.48 C 9.62 g/m*3 16.48 C 0 km/h
73 01-09-2007 00:00:00 15.54 C 10.44 g/m*3 15.54 C 0 km/h
74 01-09-2007 01:00:00 15.4 C 10.27 g/m*3 15.4 C 0 km/h
75 01-09-2007 02:00:00 15.3 C 10 g/m*3 15.3 C 0 km/h
Sensor: Nr:Datum:Temp:Abs-Feuchte:Windchill:Wind:
Aussen-T/F 76 01-09-2007 03:00:00 15.62 C 9.77 g/m*3 15.62 C 0 km/h
77 01-09-2007 04:00:00 15.18 C 9.96 g/m*3 15.18 C 0 km/h
78 01-09-2007 05:00:00 14.24 C 10.65 g/m*3 14.24 C 0 km/h
79 01-09-2007 06:00:00 14.52 C 10.56 g/m*3 14.52 C 0 km/h
80 01-09-2007 07:00:00 14.64 C 10.51 g/m*3 14.64 C 0 km/h
81 01-09-2007 08:00:00 15.3 C 10.45 g/m*3 15.3 C 0 km/h
82 01-09-2007 09:00:00 16.28 C 10.23 g/m*3 16.28 C 0 km/h
83 01-09-2007 10:00:00 17.78 C 10.1 g/m*3 17.78 C 0 km/h
84 01-09-2007 11:00:00 17.18 C 10.82 g/m*3 17.18 C 0 km/h
85 01-09-2007 12:00:00 18.24 C 10.22 g/m*3 18.24 C 0 km/h
86 01-09-2007 13:00:00 19.68 C 10.45 g/m*3 19.68 C 0 km/h
87 01-09-2007 14:00:00 20.42 C 10.02 g/m*3 20.42 C 0 km/h
88 01-09-2007 15:00:00 20.06 C 10.72 g/m*3 20.06 C 0 km/h
89 01-09-2007 16:00:00 21.56 C 8.51 g/m*3 21.56 C 0 km/h
90 01-09-2007 17:00:00 21.72 C 8.33 g/m*3 21.72 C 0 km/h
91 01-09-2007 18:00:00 20.84 C 9.44 g/m*3 20.84 C 0 km/h
92 01-09-2007 19:00:00 19.2 C 9.79 g/m*3 19.2 C 0 km/h
93 01-09-2007 20:00:00 17.62 C 9.22 g/m*3 17.62 C 0 km/h
94 01-09-2007 21:00:00 16.1 C 8.94 g/m*3 16.1 C 0 km/h
95 01-09-2007 22:00:00 15.66 C 8.7 g/m*3 15.66 C 0 km/h
96 01-09-2007 23:00:00 14.66 C 8.79 g/m*3 14.66 C 0 km/h
97 02-09-2007 00:00:00 14.48 C 9.04 g/m*3 14.48 C 0 km/h
98 02-09-2007 01:00:00 14.3 C 9.19 g/m*3 14.3 C 0 km/h
99 02-09-2007 02:00:00 14.12 C 9.36 g/m*3 14.12 C 0 km/h
100 02-09-2007 03:00:00 14 C 9.41 g/m*3 14 C 0 km/h
Sensor: Nr:Datum:Temp:Abs-Feuchte:Windchill:Wind:
Aussen-T/F 101 02-09-2007 04:00:00 14.08 C 9.33 g/m*3 14.08 C 0 km/h
102 02-09-2007 05:00:00 13.98 C 9.42 g/m*3 13.98 C 0 km/h
103 02-09-2007 06:00:00 14.04 C 9.41 g/m*3 14.04 C 0 km/h
104 02-09-2007 07:00:00 14.32 C 9.45 g/m*3 14.32 C 0 km/h
105 02-09-2007 08:00:00 14.96 C 9.57 g/m*3 14.96 C 0 km/h
106 02-09-2007 09:00:00 16.56 C 9.5 g/m*3 16.56 C 0 km/h
107 02-09-2007 10:00:00 17.8 C 9.47 g/m*3 17.8 C 0 km/h
108 02-09-2007 11:00:00 19.48 C 9.45 g/m*3 19.48 C 0 km/h
109 02-09-2007 12:00:00 20.44 C 8.65 g/m*3 20.44 C 0 km/h
110 02-09-2007 13:00:00 20.5 C 7.76 g/m*3 20.5 C 0 km/h
111 02-09-2007 14:00:00 21.34 C 6.88 g/m*3 21.34 C 0 km/h
112 02-09-2007 15:00:00 20.56 C 7.32 g/m*3 20.56 C 0 km/h
113 02-09-2007 16:00:00 20.68 C 7.66 g/m*3 20.68 C 0 km/h
114 02-09-2007 17:00:00 20.28 C 7.69 g/m*3 20.28 C 0 km/h
115 02-09-2007 18:00:00 19.52 C 8.17 g/m*3 19.52 C 0 km/h
116 02-09-2007 19:00:00 19.08 C 8.45 g/m*3 19.08 C 0 km/h
117 02-09-2007 20:00:00 18.14 C 8.7 g/m*3 18.14 C 0 km/h
118 02-09-2007 21:00:00 18.16 C 8.87 g/m*3 18.16 C 0 km/h
119 02-09-2007 22:00:00 18.14 C 8.8 g/m*3 18.14 C 0 km/h
120 02-09-2007 23:00:00 17.58 C 9.23 g/m*3 17.58 C 0 km/h
121 03-09-2007 00:00:00 16.98 C 9.1 g/m*3 16.98 C 0 km/h
122 03-09-2007 01:00:00 16.44 C 9.07 g/m*3 16.44 C 0 km/h
123 03-09-2007 02:00:00 15.84 C 9.04 g/m*3 15.84 C 0 km/h
124 03-09-2007 03:00:00 15.68 C 8.98 g/m*3 15.68 C 0 km/h
125 03-09-2007 04:00:00 15.96 C 8.43 g/m*3 15.96 C 0 km/h
Sensor: Nr:Datum:Temp:Abs-Feuchte:Windchill:Wind:
Aussen-T/F 126 03-09-2007 05:00:00 15.74 C 8.58 g/m*3 15.74 C 0 km/h
127 03-09-2007 06:00:00 15.6 C 8.56 g/m*3 15.6 C 0 km/h
128 03-09-2007 07:00:00 15.56 C 8.89 g/m*3 15.56 C 0 km/h
129 03-09-2007 08:00:00 15.12 C 9.56 g/m*3 15.12 C 0 km/h
130 03-09-2007 09:00:00 14.7 C 10.25 g/m*3 14.7 C 0 km/h
131 03-09-2007 10:00:00 14.32 C 10.75 g/m*3 14.32 C 0 km/h
132 03-09-2007 11:00:00 14.52 C 11.41 g/m*3 14.52 C 0 km/h
133 03-09-2007 12:00:00 14 C 11 g/m*3 14 C 0 km/h
134 03-09-2007 13:00:00 14.76 C 10.54 g/m*3 14.76 C 0 km/h
135 03-09-2007 14:00:00 16.68 C 9.71 g/m*3 16.68 C 0 km/h
136 03-09-2007 15:00:00 19.14 C 7.79 g/m*3 19.14 C 0 km/h
137 03-09-2007 16:00:00 18.76 C 7.26 g/m*3 18.76 C 0 km/h
138 03-09-2007 17:00:00 20.76 C 6.21 g/m*3 20.76 C 0 km/h
139 03-09-2007 18:00:00 19.78 C 5.97 g/m*3 19.78 C 0 km/h
140 03-09-2007 19:00:00 17.98 C 6.41 g/m*3 17.98 C 0 km/h
141 03-09-2007 20:00:00 13.82 C 8.9 g/m*3 13.82 C 0 km/h
142 03-09-2007 21:00:00 12.48 C 9.07 g/m*3 12.48 C 0 km/h
143 03-09-2007 22:00:00 12.04 C 8.7 g/m*3 12.04 C 0 km/h
144 03-09-2007 23:00:00 11.32 C 8.68 g/m*3 11.32 C 0 km/h
145 04-09-2007 00:00:00 10.98 C 8.52 g/m*3 10.98 C 0 km/h
146 04-09-2007 01:00:00 11.02 C 8.46 g/m*3 11.02 C 0 km/h
147 04-09-2007 02:00:00 10.94 C 8.12 g/m*3 10.94 C 0 km/h
148 04-09-2007 03:00:00 10.82 C 8.02 g/m*3 10.82 C 0 km/h
149 04-09-2007 04:00:00 10.52 C 7.85 g/m*3 10.52 C 0 km/h
150 04-09-2007 05:00:00 10.66 C 7.8 g/m*3 10.66 C 0 km/h
Sensor: Nr:Datum:Temp:Abs-Feuchte:Windchill:Wind:
Aussen-T/F 151 04-09-2007 06:00:00 10.32 C 7.65 g/m*3 10.32 C 0 km/h
152 04-09-2007 07:00:00 10.76 C 7.47 g/m*3 10.76 C 0 km/h
153 04-09-2007 08:00:00 10.88 C 7.39 g/m*3 10.88 C 0 km/h
154 04-09-2007 09:00:00 10.86 C 7.7 g/m*3 10.86 C 0 km/h
155 04-09-2007 10:00:00 12.66 C 7.15 g/m*3 12.66 C 0 km/h
156 04-09-2007 11:00:00 13.56 C 6.2 g/m*3 13.56 C 0 km/h
157 04-09-2007 12:00:00 14.12 C 6 g/m*3 14.12 C 0 km/h
158 04-09-2007 13:00:00 14.64 C 6.27 g/m*3 14.64 C 0 km/h
159 04-09-2007 14:00:00 15.12 C 5.92 g/m*3 15.12 C 0 km/h
160 04-09-2007 15:00:00 15.14 C 6 g/m*3 15.14 C 0 km/h
161 04-09-2007 16:00:00 17.7 C 5.55 g/m*3 17.7 C 0 km/h
162 04-09-2007 17:00:00 15.38 C 5.93 g/m*3 15.38 C 0 km/h
163 04-09-2007 18:00:00 17.8 C 5.59 g/m*3 17.8 C 0 km/h
164 04-09-2007 19:00:00 16.64 C 5.35 g/m*3 16.64 C 0 km/h
165 04-09-2007 20:00:00 14.04 C 5.95 g/m*3 14.04 C 0 km/h
166 04-09-2007 21:00:00 12.48 C 6.39 g/m*3 12.48 C 0 km/h
167 04-09-2007 22:00:00 11.58 C 6.33 g/m*3 11.58 C 0 km/h
168 04-09-2007 23:00:00 10.6 C 6.52 g/m*3 10.6 C 0 km/h
169 05-09-2007 00:00:00 9.8 C 6.72 g/m*3 9.8 C 0 km/h
170 05-09-2007 01:00:00 9.06 C 7.08 g/m*3 9.06 C 0 km/h
171 05-09-2007 02:00:00 8.475 C 7.2 g/m*3 8.48 C 0 km/h
172 05-09-2007 03:00:00 7.98 C 7.12 g/m*3 7.98 C 0 km/h
173 05-09-2007 04:00:00 7.4 C 7 g/m*3 7.4 C 0 km/h
174 05-09-2007 05:00:00 7.16 C 7 g/m*3 7.16 C 0 km/h
175 05-09-2007 06:00:00 7.3 C 7.17 g/m*3 7.3 C 0 km/h
Sensor: Nr:Datum:Temp:Abs-Feuchte:Windchill:Wind:
Aussen-T/F 176 05-09-2007 07:00:00 7.86 C 7.47 g/m*3 7.86 C 0 km/h
177 05-09-2007 08:00:00 9.2 C 7.54 g/m*3 9.2 C 0 km/h
178 05-09-2007 09:00:00 10.9 C 7.1 g/m*3 10.9 C 0 km/h
179 05-09-2007 10:00:00 12.7 C 6.83 g/m*3 12.7 C 0 km/h
180 05-09-2007 11:00:00 15.02 C 6.68 g/m*3 15.02 C 0 km/h
181 05-09-2007 12:00:00 15.58 C 5.79 g/m*3 15.58 C 0 km/h
182 05-09-2007 13:00:00 16.68 C 5.37 g/m*3 16.68 C 0 km/h
183 05-09-2007 14:00:00 17.34 C 5.11 g/m*3 17.34 C 0 km/h
184 05-09-2007 15:00:00 18.18 C 5.4 g/m*3 18.18 C 0 km/h
185 05-09-2007 16:00:00 18.02 C 5.66 g/m*3 18.02 C 0 km/h
186 05-09-2007 17:00:00 16.98 C 5.72 g/m*3 16.98 C 0 km/h
187 05-09-2007 18:00:00 16.28 C 5.82 g/m*3 16.28 C 0 km/h
188 05-09-2007 19:00:00 15.4 C 6.15 g/m*3 15.4 C 0 km/h
189 05-09-2007 20:00:00 14.36 C 6.71 g/m*3 14.36 C 0 km/h
190 05-09-2007 21:00:00 13.82 C 6.97 g/m*3 13.82 C 0 km/h
191 05-09-2007 22:00:00 13.56 C 7.07 g/m*3 13.56 C 0 km/h
192 05-09-2007 23:00:00 13.46 C 7.14 g/m*3 13.46 C 0 km/h
193 06-09-2007 00:00:00 13.38 C 7.11 g/m*3 13.38 C 0 km/h
194 06-09-2007 01:00:00 13.28 C 7.22 g/m*3 13.28 C 0 km/h
195 06-09-2007 02:00:00 13.14 C 7.37 g/m*3 13.14 C 0 km/h
196 06-09-2007 03:00:00 13.02 C 7.56 g/m*3 13.02 C 0 km/h
197 06-09-2007 04:00:00 12.76 C 8.36 g/m*3 12.76 C 0 km/h
198 06-09-2007 05:00:00 12.46 C 9.04 g/m*3 12.46 C 0 km/h
199 06-09-2007 06:00:00 12.48 C 9.22 g/m*3 12.48 C 0 km/h
200 06-09-2007 07:00:00 12.68 C 9.47 g/m*3 12.68 C 0 km/h
Sensor: Nr:Datum:Temp:Abs-Feuchte:Windchill:Wind:
Aussen-T/F 201 06-09-2007 08:00:00 12.9 C 9.78 g/m*3 12.9 C 0 km/h
202 06-09-2007 09:00:00 13.54 C 10.08 g/m*3 13.54 C 0 km/h
203 06-09-2007 10:00:00 14.26 C 10.17 g/m*3 14.26 C 0 km/h
204 06-09-2007 11:00:00 14.28 C 10.65 g/m*3 14.28 C 0 km/h
205 06-09-2007 12:00:00 15.06 C 11.07 g/m*3 15.06 C 0 km/h
206 06-09-2007 13:00:00 15.9 C 11 g/m*3 15.9 C 0 km/h
207 06-09-2007 14:00:00 15.84 C 11.25 g/m*3 15.84 C 0 km/h
208 06-09-2007 15:00:00 16.26 C 11.46 g/m*3 16.26 C 0 km/h
209 06-09-2007 16:00:00 16.7 C 12.05 g/m*3 16.7 C 0 km/h
210 06-09-2007 17:00:00 19.92 C 10.7 g/m*3 19.92 C 0 km/h
211 06-09-2007 18:00:00 21.36 C 8.38 g/m*3 21.36 C 0 km/h
212 06-09-2007 19:00:00 20.34 C 8 g/m*3 20.34 C 0 km/h
213 06-09-2007 20:00:00 16.96 C 8.72 g/m*3 16.96 C 0 km/h
214 06-09-2007 21:00:00 15.34 C 8.93 g/m*3 15.34 C 0 km/h
215 06-09-2007 22:00:00 14.64 C 8.88 g/m*3 14.64 C 0 km/h
216 06-09-2007 23:00:00 13.72 C 8.23 g/m*3 13.72 C 0 km/h
217 07-09-2007 00:00:00 13.38 C 7.78 g/m*3 13.38 C 0 km/h
218 07-09-2007 01:00:00 13.38 C 7.83 g/m*3 13.38 C 0 km/h
219 07-09-2007 02:00:00 13.58 C 8.2 g/m*3 13.58 C 0 km/h
220 07-09-2007 03:00:00 14.32 C 8.83 g/m*3 14.32 C 0 km/h
221 07-09-2007 04:00:00 14.32 C 9.23 g/m*3 14.32 C 0 km/h
222 07-09-2007 05:00:00 13.66 C 9.97 g/m*3 13.66 C 0 km/h
223 07-09-2007 06:00:00 13.72 C 10.43 g/m*3 13.72 C 0 km/h
224 07-09-2007 07:00:00 13.92 C 10.39 g/m*3 13.92 C 0 km/h
225 07-09-2007 08:00:00 14.28 C 9.82 g/m*3 14.28 C 0 km/h
Sensor: Nr:Datum:Temp:Abs-Feuchte:Windchill:Wind:
Aussen-T/F 226 07-09-2007 09:00:00 15.1 C 8.77 g/m*3 15.1 C 0 km/h
227 07-09-2007 10:00:00 16.04 C 8.82 g/m*3 16.04 C 0 km/h
228 07-09-2007 11:00:00 16.58 C 8.47 g/m*3 16.58 C 0 km/h
229 07-09-2007 12:00:00 17.2 C 8.17 g/m*3 17.2 C 0 km/h
230 07-09-2007 13:00:00 17.44 C 8.62 g/m*3 17.44 C 0 km/h
231 07-09-2007 14:00:00 18.66 C 8.78 g/m*3 18.66 C 0 km/h
232 07-09-2007 15:00:00 18.82 C 8.8 g/m*3 18.82 C 0 km/h
233 07-09-2007 16:00:00 18.18 C 9.28 g/m*3 18.18 C 0 km/h
234 07-09-2007 17:00:00 18.26 C 9.3 g/m*3 18.26 C 0 km/h
235 07-09-2007 18:00:00 18.04 C 9.18 g/m*3 18.04 C 0 km/h
236 07-09-2007 19:00:00 17.6 C 9.36 g/m*3 17.6 C 0 km/h
237 07-09-2007 20:00:00 16.88 C 9.77 g/m*3 16.88 C 0 km/h
238 07-09-2007 21:00:00 16.7 C 9.92 g/m*3 16.7 C 0 km/h
239 07-09-2007 22:00:00 16.32 C 9.97 g/m*3 16.32 C 0 km/h
240 07-09-2007 23:00:00 16 C 10.14 g/m*3 16 C 0 km/h
241 08-09-2007 00:00:00 15.5 C 10.18 g/m*3 15.5 C 0 km/h
242 08-09-2007 01:00:00 14.74 C 10.15 g/m*3 14.74 C 0 km/h
243 08-09-2007 02:00:00 13.94 C 10.09 g/m*3 13.94 C 0 km/h
244 08-09-2007 03:00:00 13.04 C 9.82 g/m*3 13.04 C 0 km/h
245 08-09-2007 04:00:00 12.34 C 9.67 g/m*3 12.34 C 0 km/h
246 08-09-2007 05:00:00 12.34 C 9.82 g/m*3 12.34 C 0 km/h
247 08-09-2007 06:00:00 12.14 C 9.74 g/m*3 12.14 C 0 km/h
248 08-09-2007 07:00:00 12.38 C 9.93 g/m*3 12.38 C 0 km/h
249 08-09-2007 08:00:00 13.16 C 10.24 g/m*3 13.16 C 0 km/h
250 08-09-2007 09:00:00 13.42 C 9.92 g/m*3 13.42 C 0 km/h
Sensor: Nr:Datum:Temp:Abs-Feuchte:Windchill:Wind:
Aussen-T/F 251 08-09-2007 10:00:00 14.08 C 10.09 g/m*3 14.08 C 0 km/h
252 08-09-2007 11:00:00 14.54 C 10.02 g/m*3 14.54 C 0 km/h
253 08-09-2007 12:00:00 14.68 C 10.51 g/m*3 14.68 C 0 km/h
254 08-09-2007 13:00:00 15.88 C 10.63 g/m*3 15.88 C 0 km/h
255 08-09-2007 14:00:00 18.1 C 10.23 g/m*3 18.1 C 0 km/h
256 08-09-2007 15:00:00 17.98 C 9.7 g/m*3 17.98 C 0 km/h
257 08-09-2007 16:00:00 17.96 C 9.5 g/m*3 17.96 C 0 km/h
258 08-09-2007 17:00:00 17.86 C 9.72 g/m*3 17.86 C 0 km/h
259 08-09-2007 18:00:00 17.8 C 9.41 g/m*3 17.8 C 0 km/h
260 08-09-2007 19:00:00 17.22 C 9.68 g/m*3 17.22 C 0 km/h
261 08-09-2007 20:00:00 16.58 C 9.85 g/m*3 16.58 C 0 km/h
262 08-09-2007 21:00:00 16.22 C 9.91 g/m*3 16.22 C 0 km/h
263 08-09-2007 22:00:00 15.78 C 10.06 g/m*3 15.78 C 0 km/h
264 08-09-2007 23:00:00 15.6 C 10.16 g/m*3 15.6 C 0 km/h
265 09-09-2007 00:00:00 15.56 C 10.27 g/m*3 15.56 C 0 km/h
266 09-09-2007 01:00:00 15.54 C 10.39 g/m*3 15.54 C 0 km/h
267 09-09-2007 02:00:00 15.58 C 10.6 g/m*3 15.58 C 0 km/h
268 09-09-2007 03:00:00 14.46 C 10.92 g/m*3 14.46 C 0 km/h
269 09-09-2007 04:00:00 14.06 C 10.97 g/m*3 14.06 C 0 km/h
270 09-09-2007 05:00:00 14 C 10.95 g/m*3 14 C 0 km/h
271 09-09-2007 06:00:00 13.84 C 10.7 g/m*3 13.84 C 0 km/h
272 09-09-2007 07:00:00 13.84 C 10.73 g/m*3 13.84 C 0 km/h
273 09-09-2007 08:00:00 13.58 C 10.48 g/m*3 13.58 C 0 km/h
274 09-09-2007 09:00:00 14.1 C 10.56 g/m*3 14.1 C 0 km/h
275 09-09-2007 10:00:00 14.84 C 9.8 g/m*3 14.84 C 0 km/h
Sensor: Nr:Datum:Temp:Abs-Feuchte:Windchill:Wind:
Aussen-T/F 276 09-09-2007 11:00:00 14.84 C 8.86 g/m*3 14.84 C 0 km/h
277 09-09-2007 12:00:00 16.26 C 7.03 g/m*3 16.26 C 0 km/h
278 09-09-2007 13:00:00 16.76 C 7.33 g/m*3 16.76 C 0 km/h
279 09-09-2007 14:00:00 16.94 C 7.5 g/m*3 16.94 C 0 km/h
280 09-09-2007 15:00:00 17.6 C 6.9 g/m*3 17.6 C 0 km/h
281 09-09-2007 16:00:00 18.02 C 7.04 g/m*3 18.02 C 0 km/h
282 09-09-2007 17:00:00 17.5 C 7.28 g/m*3 17.5 C 0 km/h
283 09-09-2007 18:00:00 16.9 C 7.36 g/m*3 16.9 C 0 km/h
284 09-09-2007 19:00:00 16.14 C 7.69 g/m*3 16.14 C 0 km/h
285 09-09-2007 20:00:00 15.26 C 8.1 g/m*3 15.26 C 0 km/h
286 09-09-2007 21:00:00 13.46 C 8.26 g/m*3 13.46 C 0 km/h
287 09-09-2007 22:00:00 12.34 C 8.47 g/m*3 12.34 C 0 km/h
288 09-09-2007 23:00:00 11.58 C 8.51 g/m*3 11.58 C 0 km/h
289 10-09-2007 00:00:00 10.84 C 8.32 g/m*3 10.84 C 0 km/h
290 10-09-2007 01:00:00 10.3 C 8.27 g/m*3 10.3 C 0 km/h
291 10-09-2007 02:00:00 9.94 C 8.18 g/m*3 9.94 C 0 km/h
292 10-09-2007 03:00:00 9.58 C 8.14 g/m*3 9.58 C 0 km/h
293 10-09-2007 04:00:00 9.2 C 7.97 g/m*3 9.2 C 0 km/h
294 10-09-2007 05:00:00 9 C 8.04 g/m*3 9 C 0 km/h
295 10-09-2007 06:00:00 9.56 C 8.15 g/m*3 9.56 C 0 km/h
296 10-09-2007 07:00:00 10.26 C 8.22 g/m*3 10.26 C 0 km/h
297 10-09-2007 08:00:00 11.2 C 8.25 g/m*3 11.2 C 0 km/h
298 10-09-2007 09:00:00 12.4 C 8.17 g/m*3 12.4 C 0 km/h
299 10-09-2007 10:00:00 13.14 C 8.12 g/m*3 13.14 C 0 km/h
300 10-09-2007 11:00:00 13.8 C 8.15 g/m*3 13.8 C 0 km/h
Sensor: Nr:Datum:Temp:Abs-Feuchte:Windchill:Wind:
Aussen-T/F 301 10-09-2007 12:00:00 14.28 C 8.32 g/m*3 14.28 C 0 km/h
302 10-09-2007 13:00:00 15.4 C 8.59 g/m*3 15.4 C 0 km/h
303 10-09-2007 14:00:00 16.74 C 8.8 g/m*3 16.74 C 0 km/h
304 10-09-2007 15:00:00 17.9 C 8.55 g/m*3 17.9 C 0 km/h
305 10-09-2007 16:00:00 16.88 C 9.31 g/m*3 16.88 C 0 km/h
306 10-09-2007 17:00:00 13.9 C 9.76 g/m*3 13.9 C 0 km/h
307 10-09-2007 18:00:00 13.26 C 9.75 g/m*3 13.26 C 0 km/h
308 10-09-2007 19:00:00 12.64 C 9.74 g/m*3 12.64 C 0 km/h
309 10-09-2007 20:00:00 11.9 C 9.57 g/m*3 11.9 C 0 km/h
310 10-09-2007 21:00:00 11.56 C 9.35 g/m*3 11.56 C 0 km/h
311 10-09-2007 22:00:00 11.82 C 8.73 g/m*3 11.82 C 0 km/h
312 10-09-2007 23:00:00 12.28 C 8.07 g/m*3 12.28 C 0 km/h
313 11-09-2007 00:00:00 11.8 C 8.46 g/m*3 11.8 C 0 km/h
314 11-09-2007 01:00:00 11.98 C 8.34 g/m*3 11.98 C 0 km/h
315 11-09-2007 02:00:00 12.28 C 7.98 g/m*3 12.28 C 0 km/h
316 11-09-2007 03:00:00 12.24 C 7.92 g/m*3 12.24 C 0 km/h
317 11-09-2007 04:00:00 11.84 C 8.42 g/m*3 11.84 C 0 km/h
318 11-09-2007 05:00:00 11.76 C 8.71 g/m*3 11.76 C 0 km/h
319 11-09-2007 06:00:00 11.6 C 8.96 g/m*3 11.6 C 0 km/h
320 11-09-2007 07:00:00 11.5 C 9.09 g/m*3 11.5 C 0 km/h
321 11-09-2007 08:00:00 12.16 C 9.11 g/m*3 12.16 C 0 km/h
322 11-09-2007 09:00:00 13.08 C 8.94 g/m*3 13.08 C 0 km/h
323 11-09-2007 10:00:00 14.72 C 8.77 g/m*3 14.72 C 0 km/h
324 11-09-2007 11:00:00 14.44 C 9.05 g/m*3 14.44 C 0 km/h
325 11-09-2007 12:00:00 16.4 C 8.65 g/m*3 16.4 C 0 km/h
Sensor: Nr:Datum:Temp:Abs-Feuchte:Windchill:Wind:
Aussen-T/F 326 11-09-2007 13:00:00 16.08 C 8.21 g/m*3 16.08 C 0 km/h
327 11-09-2007 14:00:00 16.9 C 8.08 g/m*3 16.9 C 0 km/h
328 11-09-2007 15:00:00 17.52 C 7.97 g/m*3 17.52 C 0 km/h
329 11-09-2007 16:00:00 17.84 C 7.85 g/m*3 17.84 C 0 km/h
330 11-09-2007 17:00:00 17.58 C 7.82 g/m*3 17.58 C 0 km/h
331 11-09-2007 18:00:00 17.22 C 7.95 g/m*3 17.22 C 0 km/h
332 11-09-2007 19:00:00 16.34 C 8.54 g/m*3 16.34 C 0 km/h
333 11-09-2007 20:00:00 15.44 C 8.67 g/m*3 15.44 C 0 km/h
334 11-09-2007 21:00:00 15.02 C 8.76 g/m*3 15.02 C 0 km/h
335 11-09-2007 22:00:00 14.66 C 8.79 g/m*3 14.66 C 0 km/h
336 11-09-2007 23:00:00 14.44 C 8.87 g/m*3 14.44 C 0 km/h
337 12-09-2007 00:00:00 14.44 C 8.82 g/m*3 14.44 C 0 km/h
338 12-09-2007 01:00:00 13.82 C 8.88 g/m*3 13.82 C 0 km/h
339 12-09-2007 02:00:00 12.82 C 9.11 g/m*3 12.82 C 0 km/h
340 12-09-2007 03:00:00 12.96 C 9.23 g/m*3 12.96 C 0 km/h
341 12-09-2007 04:00:00 12.94 C 9.29 g/m*3 12.94 C 0 km/h
342 12-09-2007 05:00:00 12.86 C 9.31 g/m*3 12.86 C 0 km/h
343 12-09-2007 06:00:00 12.76 C 9.34 g/m*3 12.76 C 0 km/h
344 12-09-2007 07:00:00 12.7 C 9.42 g/m*3 12.7 C 0 km/h
345 12-09-2007 08:00:00 13.32 C 9.46 g/m*3 13.32 C 0 km/h
346 12-09-2007 09:00:00 14.54 C 9.05 g/m*3 14.54 C 0 km/h
347 12-09-2007 10:00:00 15.1 C 8.57 g/m*3 15.1 C 0 km/h
348 12-09-2007 11:00:00 16.48 C 8.27 g/m*3 16.48 C 0 km/h
349 12-09-2007 12:00:00 16.78 C 7.85 g/m*3 16.78 C 0 km/h
350 12-09-2007 13:00:00 16.28 C 7.84 g/m*3 16.28 C 0 km/h
Sensor: Nr:Datum:Temp:Abs-Feuchte:Windchill:Wind:
Aussen-T/F 351 12-09-2007 14:00:00 17.08 C 7.56 g/m*3 17.08 C 0 km/h
352 12-09-2007 15:00:00 18.5 C 6.99 g/m*3 18.5 C 0 km/h
353 12-09-2007 16:00:00 19.66 C 7.15 g/m*3 19.66 C 0 km/h
354 12-09-2007 17:00:00 19.62 C 6.73 g/m*3 19.62 C 0 km/h
355 12-09-2007 18:00:00 19.36 C 7.46 g/m*3 19.36 C 0 km/h
356 12-09-2007 19:00:00 16.1 C 7.37 g/m*3 16.1 C 0 km/h
357 12-09-2007 20:00:00 14.12 C 7.87 g/m*3 14.12 C 0 km/h
358 12-09-2007 21:00:00 13.14 C 8.1 g/m*3 13.14 C 0 km/h
359 12-09-2007 22:00:00 12.08 C 8.23 g/m*3 12.08 C 0 km/h
360 12-09-2007 23:00:00 11.2 C 8.25 g/m*3 11.2 C 0 km/h
361 13-09-2007 00:00:00 10.56 C 8.24 g/m*3 10.56 C 0 km/h
362 13-09-2007 01:00:00 9.94 C 8.05 g/m*3 9.94 C 0 km/h
363 13-09-2007 02:00:00 9.28 C 7.9 g/m*3 9.28 C 0 km/h
364 13-09-2007 03:00:00 8.74 C 7.68 g/m*3 8.74 C 0 km/h
365 13-09-2007 04:00:00 8.16 C 7.45 g/m*3 8.16 C 0 km/h
366 13-09-2007 05:00:00 8 C 7.47 g/m*3 8 C 0 km/h
367 13-09-2007 06:00:00 8.22 C 7.65 g/m*3 8.22 C 0 km/h
368 13-09-2007 07:00:00 8.4 C 7.77 g/m*3 8.4 C 0 km/h
369 13-09-2007 08:00:00 9.1 C 7.84 g/m*3 9.1 C 0 km/h
370 13-09-2007 09:00:00 10.26 C 7.89 g/m*3 10.26 C 0 km/h
371 13-09-2007 10:00:00 12.4 C 8.11 g/m*3 12.4 C 0 km/h
372 13-09-2007 11:00:00 14.86 C 8.39 g/m*3 14.86 C 0 km/h
373 13-09-2007 12:00:00 17.2 C 9.05 g/m*3 17.2 C 0 km/h
374 13-09-2007 13:00:00 19.94 C 8.16 g/m*3 19.94 C 0 km/h
375 13-09-2007 14:00:00 22.6 C 7.19 g/m*3 22.6 C 0 km/h
Sensor: Nr:Datum:Temp:Abs-Feuchte:Windchill:Wind:
Aussen-T/F 376 13-09-2007 15:00:00 23.08 C 7.1 g/m*3 23.08 C 0 km/h
377 13-09-2007 16:00:00 23.92 C 7.28 g/m*3 23.92 C 0 km/h
378 13-09-2007 17:00:00 22.98 C 7.31 g/m*3 22.98 C 0 km/h
379 13-09-2007 18:00:00 22.86 C 7.42 g/m*3 22.86 C 0 km/h
380 13-09-2007 19:00:00 19.56 C 8.32 g/m*3 19.56 C 0 km/h
381 13-09-2007 20:00:00 16.16 C 8.56 g/m*3 16.16 C 0 km/h
382 13-09-2007 21:00:00 15.06 C 8.8 g/m*3 15.06 C 0 km/h
383 13-09-2007 22:00:00 14.06 C 8.86 g/m*3 14.06 C 0 km/h
384 13-09-2007 23:00:00 13.08 C 8.78 g/m*3 13.08 C 0 km/h
385 14-09-2007 00:00:00 12.2 C 8.57 g/m*3 12.2 C 0 km/h
386 14-09-2007 01:00:00 11.36 C 8.42 g/m*3 11.36 C 0 km/h
387 14-09-2007 02:00:00 10.68 C 8.14 g/m*3 10.68 C 0 km/h
388 14-09-2007 03:00:00 9.94 C 7.92 g/m*3 9.94 C 0 km/h
389 14-09-2007 04:00:00 9.44 C 7.87 g/m*3 9.44 C 0 km/h
390 14-09-2007 05:00:00 9.48 C 8.05 g/m*3 9.48 C 0 km/h
391 14-09-2007 06:00:00 9.46 C 8.13 g/m*3 9.46 C 0 km/h
392 14-09-2007 07:00:00 9.36 C 7.87 g/m*3 9.36 C 0 km/h
393 14-09-2007 08:00:00 9.78 C 7.99 g/m*3 9.78 C 0 km/h
394 14-09-2007 09:00:00 10.1 C 8.08 g/m*3 10.1 C 0 km/h
395 14-09-2007 10:00:00 11.62 C 8.43 g/m*3 11.62 C 0 km/h
396 14-09-2007 11:00:00 13.72 C 8.92 g/m*3 13.72 C 0 km/h
397 14-09-2007 12:00:00 16.66 C 9.33 g/m*3 16.66 C 0 km/h
398 14-09-2007 13:00:00 20.32 C 8.98 g/m*3 20.32 C 0 km/h
399 14-09-2007 14:00:00 22.92 C 8.31 g/m*3 22.92 C 0 km/h
400 14-09-2007 15:00:00 23.36 C 8.1 g/m*3 23.36 C 0 km/h
Sensor: Nr:Datum:Temp:Abs-Feuchte:Windchill:Wind:
Aussen-T/F 401 14-09-2007 16:00:00 24.38 C 7.42 g/m*3 24.38 C 0 km/h
402 14-09-2007 17:00:00 25.04 C 7.11 g/m*3 25.04 C 0 km/h
403 14-09-2007 18:00:00 21.98 C 7.37 g/m*3 21.98 C 0 km/h
404 14-09-2007 19:00:00 20.1 C 7.41 g/m*3 20.1 C 0 km/h
405 14-09-2007 20:00:00 19.32 C 7.51 g/m*3 19.32 C 0 km/h
406 14-09-2007 21:00:00 18.6 C 7.83 g/m*3 18.6 C 0 km/h
407 14-09-2007 22:00:00 18.34 C 7.9 g/m*3 18.34 C 0 km/h
408 14-09-2007 23:00:00 18.26 C 8.14 g/m*3 18.26 C 0 km/h
409 15-09-2007 00:00:00 17.38 C 9.06 g/m*3 17.38 C 0 km/h
410 15-09-2007 01:00:00 15.84 C 10.07 g/m*3 15.84 C 0 km/h
411 15-09-2007 02:00:00 15.44 C 9.77 g/m*3 15.44 C 0 km/h
412 15-09-2007 03:00:00 14.88 C 9.39 g/m*3 14.88 C 0 km/h
413 15-09-2007 04:00:00 14.04 C 9.26 g/m*3 14.04 C 0 km/h
414 15-09-2007 05:00:00 12.78 C 9.11 g/m*3 12.78 C 0 km/h
415 15-09-2007 06:00:00 12.1 C 9.03 g/m*3 12.1 C 0 km/h
416 15-09-2007 07:00:00 11.44 C 8.91 g/m*3 11.44 C 0 km/h
417 15-09-2007 08:00:00 11.64 C 9.09 g/m*3 11.64 C 0 km/h
418 15-09-2007 09:00:00 13.28 C 9.46 g/m*3 13.28 C 0 km/h
419 15-09-2007 10:00:00 15.68 C 8.79 g/m*3 15.68 C 0 km/h
420 15-09-2007 11:00:00 17.08 C 7.39 g/m*3 17.08 C 0 km/h
421 15-09-2007 12:00:00 18.4 C 7.24 g/m*3 18.4 C 0 km/h
422 15-09-2007 13:00:00 20.66 C 6.54 g/m*3 20.66 C 0 km/h
423 15-09-2007 14:00:00 22.14 C 5.71 g/m*3 22.14 C 0 km/h
424 15-09-2007 15:00:00 22.42 C 5.13 g/m*3 22.42 C 0 km/h
425 15-09-2007 16:00:00 23.76 C 5.45 g/m*3 23.76 C 0 km/h
Sensor: Nr:Datum:Temp:Abs-Feuchte:Windchill:Wind:
Aussen-T/F 426 15-09-2007 17:00:00 24.74 C 5.22 g/m*3 24.74 C 0 km/h
427 15-09-2007 18:00:00 24.92 C 5.64 g/m*3 24.92 C 0 km/h
428 15-09-2007 19:00:00 20.28 C 6.46 g/m*3 20.28 C 0 km/h
429 15-09-2007 20:00:00 16.2 C 6.54 g/m*3 16.2 C 0 km/h
430 15-09-2007 21:00:00 14.46 C 6.87 g/m*3 14.46 C 0 km/h
431 15-09-2007 22:00:00 13.24 C 7.14 g/m*3 13.24 C 0 km/h
432 15-09-2007 23:00:00 12.06 C 7.25 g/m*3 12.06 C 0 km/h
433 16-09-2007 00:00:00 11.18 C 7.27 g/m*3 11.18 C 0 km/h
434 16-09-2007 01:00:00 10.42 C 7.26 g/m*3 10.42 C 0 km/h
435 16-09-2007 02:00:00 9.62 C 7.17 g/m*3 9.62 C 0 km/h
436 16-09-2007 03:00:00 9.06 C 7.17 g/m*3 9.06 C 0 km/h
437 16-09-2007 04:00:00 8.66 C 7.21 g/m*3 8.66 C 0 km/h
438 16-09-2007 05:00:00 8.7 C 7.21 g/m*3 8.7 C 0 km/h
439 16-09-2007 06:00:00 8.24 C 7.12 g/m*3 8.24 C 0 km/h
440 16-09-2007 07:00:00 8.02 C 7.04 g/m*3 8.02 C 0 km/h
441 16-09-2007 08:00:00 8.14 C 7.09 g/m*3 8.14 C 0 km/h
442 16-09-2007 09:00:00 9.08 C 7.46 g/m*3 9.08 C 0 km/h
443 16-09-2007 10:00:00 11.76 C 7.94 g/m*3 11.76 C 0 km/h
444 16-09-2007 11:00:00 15.36 C 8.34 g/m*3 15.36 C 0 km/h
445 16-09-2007 12:00:00 18.76 C 7.9 g/m*3 18.76 C 0 km/h
446 16-09-2007 13:00:00 20.82 C 7.61 g/m*3 20.82 C 0 km/h
447 16-09-2007 14:00:00 22.76 C 7.26 g/m*3 22.76 C 0 km/h
448 16-09-2007 15:00:00 24.06 C 6.9 g/m*3 24.06 C 0 km/h
449 16-09-2007 16:00:00 24.3 C 7.13 g/m*3 24.3 C 0 km/h
450 16-09-2007 17:00:00 24 C 7.27 g/m*3 24 C 0 km/h
Sensor: Nr:Datum:Temp:Abs-Feuchte:Windchill:Wind:
Aussen-T/F 451 16-09-2007 18:00:00 24.24 C 7.67 g/m*3 24.24 C 0 km/h
452 16-09-2007 19:00:00 21.44 C 8.42 g/m*3 21.44 C 0 km/h
453 16-09-2007 20:00:00 18.66 C 8.88 g/m*3 18.66 C 0 km/h
454 16-09-2007 21:00:00 17.42 C 9.23 g/m*3 17.42 C 0 km/h
455 16-09-2007 22:00:00 16.4 C 9.49 g/m*3 16.4 C 0 km/h
456 16-09-2007 23:00:00 15.38 C 9.5 g/m*3 15.38 C 0 km/h
457 17-09-2007 00:00:00 14.56 C 9.61 g/m*3 14.56 C 0 km/h
458 17-09-2007 01:00:00 13.94 C 9.64 g/m*3 13.94 C 0 km/h
459 17-09-2007 02:00:00 13.4 C 9.46 g/m*3 13.4 C 0 km/h
460 17-09-2007 03:00:00 12.92 C 9.34 g/m*3 12.92 C 0 km/h
461 17-09-2007 04:00:00 12.42 C 9.26 g/m*3 12.42 C 0 km/h
462 17-09-2007 05:00:00 12.52 C 9.64 g/m*3 12.52 C 0 km/h
463 17-09-2007 06:00:00 12.64 C 9.78 g/m*3 12.64 C 0 km/h
464 17-09-2007 07:00:00 11.46 C 9.15 g/m*3 11.46 C 0 km/h
465 17-09-2007 08:00:00 12.1 C 9.5 g/m*3 12.1 C 0 km/h
466 17-09-2007 09:00:00 13.48 C 10 g/m*3 13.48 C 0 km/h
467 17-09-2007 10:00:00 16.3 C 10.24 g/m*3 16.3 C 0 km/h
468 17-09-2007 11:00:00 19.56 C 10.04 g/m*3 19.56 C 0 km/h
469 17-09-2007 12:00:00 20.66 C 9.05 g/m*3 20.66 C 0 km/h
470 17-09-2007 13:00:00 21.88 C 8.4 g/m*3 21.88 C 0 km/h
471 17-09-2007 14:00:00 22.48 C 8.54 g/m*3 22.48 C 0 km/h
472 17-09-2007 15:00:00 23.3 C 8.53 g/m*3 23.3 C 0 km/h
473 17-09-2007 16:00:00 22.56 C 8.9 g/m*3 22.56 C 0 km/h
474 17-09-2007 17:00:00 21.78 C 9.66 g/m*3 21.78 C 0 km/h
475 17-09-2007 18:00:00 20.72 C 10.02 g/m*3 20.72 C 0 km/h
Sensor: Nr:Datum:Temp:Abs-Feuchte:Windchill:Wind:
Aussen-T/F 476 17-09-2007 19:00:00 19.78 C 10.48 g/m*3 19.78 C 0 km/h
477 17-09-2007 20:00:00 17.96 C 10.76 g/m*3 17.96 C 0 km/h
478 17-09-2007 21:00:00 15.36 C 11.72 g/m*3 15.36 C 0 km/h
479 17-09-2007 22:00:00 14.6 C 11.36 g/m*3 14.6 C 0 km/h
480 17-09-2007 23:00:00 14.14 C 10.9 g/m*3 14.14 C 0 km/h
481 18-09-2007 00:00:00 13.84 C 10.61 g/m*3 13.84 C 0 km/h
482 18-09-2007 01:00:00 13.7 C 10.28 g/m*3 13.7 C 0 km/h
483 18-09-2007 02:00:00 12.66 C 9.82 g/m*3 12.66 C 0 km/h
484 18-09-2007 03:00:00 11.84 C 9.69 g/m*3 11.84 C 0 km/h
485 18-09-2007 04:00:00 11.56 C 9.68 g/m*3 11.56 C 0 km/h
486 18-09-2007 05:00:00 10.74 C 9.08 g/m*3 10.74 C 0 km/h
487 18-09-2007 06:00:00 10.38 C 8.86 g/m*3 10.38 C 0 km/h
488 18-09-2007 07:00:00 10.22 C 8.79 g/m*3 10.22 C 0 km/h
489 18-09-2007 08:00:00 10.48 C 8.8 g/m*3 10.48 C 0 km/h
490 18-09-2007 09:00:00 10.62 C 8.37 g/m*3 10.62 C 0 km/h
491 18-09-2007 10:00:00 11.28 C 8.44 g/m*3 11.28 C 0 km/h
492 18-09-2007 11:00:00 12.92 C 7.72 g/m*3 12.92 C 0 km/h
493 18-09-2007 12:00:00 11.68 C 8.27 g/m*3 11.68 C 0 km/h
494 18-09-2007 13:00:00 11.1 C 8.66 g/m*3 11.1 C 0 km/h
495 18-09-2007 14:00:00 11.68 C 8.19 g/m*3 11.68 C 0 km/h
496 18-09-2007 15:00:00 12.16 C 8.42 g/m*3 12.16 C 0 km/h
497 18-09-2007 16:00:00 11.42 C 8.1 g/m*3 11.42 C 0 km/h
498 18-09-2007 17:00:00 13.8 C 7.32 g/m*3 13.8 C 0 km/h
499 18-09-2007 18:00:00 13.38 C 5.9 g/m*3 13.38 C 0 km/h
500 18-09-2007 19:00:00 12.58 C 6.32 g/m*3 12.58 C 0 km/h
Sensor: Nr:Datum:Temp:Abs-Feuchte:Windchill:Wind:
Aussen-T/F 501 18-09-2007 20:00:00 10.48 C 6.7 g/m*3 10.48 C 0 km/h
502 18-09-2007 21:00:00 9.8 C 6.72 g/m*3 9.8 C 0 km/h
503 18-09-2007 22:00:00 8.74 C 6.9 g/m*3 8.74 C 0 km/h
504 18-09-2007 23:00:00 8.18 C 6.69 g/m*3 8.18 C 0 km/h
505 19-09-2007 00:00:00 7.74 C 6.63 g/m*3 7.74 C 0 km/h
506 19-09-2007 01:00:00 6.86 C 6.56 g/m*3 6.86 C 0 km/h
507 19-09-2007 02:00:00 6.26 C 6.53 g/m*3 6.26 C 0 km/h
508 19-09-2007 03:00:00 5.76 C 6.49 g/m*3 5.76 C 0 km/h
509 19-09-2007 04:00:00 5.76 C 6.53 g/m*3 5.76 C 0 km/h
510 19-09-2007 05:00:00 5.72 C 6.5 g/m*3 5.72 C 0 km/h
511 19-09-2007 06:00:00 5.9 C 6.53 g/m*3 5.9 C 0 km/h
512 19-09-2007 07:00:00 6.22 C 6.55 g/m*3 6.22 C 0 km/h
513 19-09-2007 08:00:00 6.9 C 6.74 g/m*3 6.9 C 0 km/h
514 19-09-2007 09:00:00 7.7 C 6.96 g/m*3 7.7 C 0 km/h
515 19-09-2007 10:00:00 9.68 C 6.67 g/m*3 9.68 C 0 km/h
516 19-09-2007 11:00:00 11.48 C 6.07 g/m*3 11.48 C 0 km/h
517 19-09-2007 12:00:00 13.46 C 5.58 g/m*3 13.46 C 0 km/h
518 19-09-2007 13:00:00 13.84 C 5.64 g/m*3 13.84 C 0 km/h
519 19-09-2007 14:00:00 15.74 C 5.07 g/m*3 15.74 C 0 km/h
520 19-09-2007 15:00:00 16.18 C 4.88 g/m*3 16.18 C 0 km/h
521 19-09-2007 16:00:00 15.64 C 5.15 g/m*3 15.64 C 0 km/h
522 19-09-2007 17:00:00 15.12 C 5.37 g/m*3 15.12 C 0 km/h
523 19-09-2007 18:00:00 15.16 C 5.57 g/m*3 15.16 C 0 km/h
524 19-09-2007 19:00:00 13.5 C 5.75 g/m*3 13.5 C 0 km/h
525 19-09-2007 20:00:00 11.5 C 5.97 g/m*3 11.5 C 0 km/h
Sensor: Nr:Datum:Temp:Abs-Feuchte:Windchill:Wind:
Aussen-T/F 526 19-09-2007 21:00:00 10.28 C 6.26 g/m*3 10.28 C 0 km/h
527 19-09-2007 22:00:00 10.58 C 6.38 g/m*3 10.58 C 0 km/h
528 19-09-2007 23:00:00 10.88 C 6 g/m*3 10.88 C 0 km/h
529 20-09-2007 00:00:00 11.7 C 5.56 g/m*3 11.7 C 0 km/h
530 20-09-2007 01:00:00 10.58 C 6.57 g/m*3 10.58 C 0 km/h
531 20-09-2007 02:00:00 9.98 C 7.36 g/m*3 9.98 C 0 km/h
532 20-09-2007 03:00:00 9.5 C 7.81 g/m*3 9.5 C 0 km/h
533 20-09-2007 04:00:00 9.54 C 8.03 g/m*3 9.54 C 0 km/h
534 20-09-2007 05:00:00 9.58 C 7.65 g/m*3 9.58 C 0 km/h
535 20-09-2007 06:00:00 9.52 C 7.31 g/m*3 9.52 C 0 km/h
536 20-09-2007 07:00:00 9.02 C 7.31 g/m*3 9.02 C 0 km/h
537 20-09-2007 08:00:00 9.88 C 7.65 g/m*3 9.88 C 0 km/h
538 20-09-2007 09:00:00 11.16 C 7.24 g/m*3 11.16 C 0 km/h
539 20-09-2007 10:00:00 12.9 C 6.58 g/m*3 12.9 C 0 km/h
540 20-09-2007 11:00:00 14.7 C 6.3 g/m*3 14.7 C 0 km/h
541 20-09-2007 12:00:00 15.72 C 6.05 g/m*3 15.72 C 0 km/h
542 20-09-2007 13:00:00 16.72 C 5.83 g/m*3 16.72 C 0 km/h
543 20-09-2007 14:00:00 17.86 C 5.51 g/m*3 17.86 C 0 km/h
544 20-09-2007 15:00:00 19.08 C 5.5 g/m*3 19.08 C 0 km/h
545 20-09-2007 16:00:00 20.52 C 5.52 g/m*3 20.52 C 0 km/h
546 20-09-2007 17:00:00 20.7 C 5.65 g/m*3 20.7 C 0 km/h
547 20-09-2007 18:00:00 20.32 C 5.95 g/m*3 20.32 C 0 km/h
548 20-09-2007 19:00:00 17.3 C 6.28 g/m*3 17.3 C 0 km/h
549 20-09-2007 20:00:00 15 C 6.59 g/m*3 15 C 0 km/h
550 20-09-2007 21:00:00 13.48 C 6.99 g/m*3 13.48 C 0 km/h
Sensor: Nr:Datum:Temp:Abs-Feuchte:Windchill:Wind:
Aussen-T/F 551 20-09-2007 22:00:00 12.32 C 7.24 g/m*3 12.32 C 0 km/h
552 20-09-2007 23:00:00 11.26 C 7.28 g/m*3 11.26 C 0 km/h
553 21-09-2007 00:00:00 10.4 C 7.34 g/m*3 10.4 C 0 km/h
554 21-09-2007 01:00:00 9.86 C 7.38 g/m*3 9.86 C 0 km/h
555 21-09-2007 02:00:00 9.18 C 7.15 g/m*3 9.18 C 0 km/h
556 21-09-2007 03:00:00 8.54 C 7.14 g/m*3 8.54 C 0 km/h
557 21-09-2007 04:00:00 8.04 C 7.06 g/m*3 8.04 C 0 km/h
558 21-09-2007 05:00:00 7.62 C 7.03 g/m*3 7.62 C 0 km/h
559 21-09-2007 06:00:00 7.34 C 6.91 g/m*3 7.34 C 0 km/h
560 21-09-2007 07:00:00 6.84 C 6.79 g/m*3 6.84 C 0 km/h
561 21-09-2007 08:00:00 7.18 C 6.96 g/m*3 7.18 C 0 km/h
562 21-09-2007 09:00:00 8.38 C 7.54 g/m*3 8.38 C 0 km/h
563 21-09-2007 10:00:00 11.86 C 7.73 g/m*3 11.86 C 0 km/h
564 21-09-2007 11:00:00 15.42 C 7.97 g/m*3 15.42 C 0 km/h
565 21-09-2007 12:00:00 18.26 C 6.99 g/m*3 18.26 C 0 km/h
566 21-09-2007 13:00:00 19.14 C 6.9 g/m*3 19.14 C 0 km/h
567 21-09-2007 14:00:00 21.64 C 6.58 g/m*3 21.64 C 0 km/h
568 21-09-2007 15:00:00 23.56 C 6.15 g/m*3 23.56 C 0 km/h
569 21-09-2007 16:00:00 24.88 C 6.13 g/m*3 24.88 C 0 km/h
570 21-09-2007 17:00:00 25.04 C 6.04 g/m*3 25.04 C 0 km/h
571 21-09-2007 18:00:00 23.88 C 6.79 g/m*3 23.88 C 0 km/h
572 21-09-2007 19:00:00 18.96 C 7.28 g/m*3 18.96 C 0 km/h
573 21-09-2007 20:00:00 16.44 C 7.33 g/m*3 16.44 C 0 km/h
574 21-09-2007 21:00:00 15.34 C 7.59 g/m*3 15.34 C 0 km/h
575 21-09-2007 22:00:00 14.04 C 7.74 g/m*3 14.04 C 0 km/h
Sensor: Nr:Datum:Temp:Abs-Feuchte:Windchill:Wind:
Aussen-T/F 576 21-09-2007 23:00:00 12.76 C 7.62 g/m*3 12.76 C 0 km/h
577 22-09-2007 00:00:00 11.78 C 7.69 g/m*3 11.78 C 0 km/h
578 22-09-2007 01:00:00 11.34 C 7.65 g/m*3 11.34 C 0 km/h
579 22-09-2007 02:00:00 10.8 C 7.77 g/m*3 10.8 C 0 km/h
580 22-09-2007 03:00:00 10.56 C 7.67 g/m*3 10.56 C 0 km/h
581 22-09-2007 04:00:00 10.08 C 7.69 g/m*3 10.08 C 0 km/h
582 22-09-2007 05:00:00 9.6 C 7.6 g/m*3 9.6 C 0 km/h
583 22-09-2007 06:00:00 9.1 C 7.42 g/m*3 9.1 C 0 km/h
584 22-09-2007 07:00:00 8.66 C 7.45 g/m*3 8.66 C 0 km/h
585 22-09-2007 08:00:00 9.2 C 7.66 g/m*3 9.2 C 0 km/h
586 22-09-2007 09:00:00 9.9 C 7.81 g/m*3 9.9 C 0 km/h
587 22-09-2007 10:00:00 11.68 C 8.36 g/m*3 11.68 C 0 km/h
588 22-09-2007 11:00:00 14.64 C 8.78 g/m*3 14.64 C 0 km/h
589 22-09-2007 12:00:00 17.74 C 9.07 g/m*3 17.74 C 0 km/h
590 22-09-2007 13:00:00 20.56 C 9.18 g/m*3 20.56 C 0 km/h
591 22-09-2007 14:00:00 24.04 C 8.5 g/m*3 24.04 C 0 km/h
592 22-09-2007 15:00:00 26.22 C 8.43 g/m*3 26.22 C 0 km/h
593 22-09-2007 16:00:00 27.84 C 7.71 g/m*3 27.84 C 0 km/h
594 22-09-2007 17:00:00 27.9 C 7.68 g/m*3 27.9 C 0 km/h
595 22-09-2007 18:00:00 24.86 C 7.9 g/m*3 24.86 C 0 km/h
596 22-09-2007 19:00:00 20.86 C 8.21 g/m*3 20.86 C 0 km/h
597 22-09-2007 20:00:00 18.58 C 8.62 g/m*3 18.58 C 0 km/h
598 22-09-2007 21:00:00 17.1 C 9.2 g/m*3 17.1 C 0 km/h
599 22-09-2007 22:00:00 15.74 C 9.36 g/m*3 15.74 C 0 km/h
600 22-09-2007 23:00:00 14.64 C 9.26 g/m*3 14.64 C 0 km/h
Sensor: Nr:Datum:Temp:Abs-Feuchte:Windchill:Wind:
Aussen-T/F 601 23-09-2007 00:00:00 13.86 C 9.11 g/m*3 13.86 C 0 km/h
602 23-09-2007 01:00:00 13.16 C 9.09 g/m*3 13.16 C 0 km/h
603 23-09-2007 02:00:00 12.46 C 8.93 g/m*3 12.46 C 0 km/h
604 23-09-2007 03:00:00 11.96 C 8.87 g/m*3 11.96 C 0 km/h
605 23-09-2007 04:00:00 11.58 C 8.82 g/m*3 11.58 C 0 km/h
606 23-09-2007 05:00:00 11.16 C 8.59 g/m*3 11.16 C 0 km/h
607 23-09-2007 06:00:00 10.74 C 8.47 g/m*3 10.74 C 0 km/h
608 23-09-2007 07:00:00 10.78 C 8.55 g/m*3 10.78 C 0 km/h
609 23-09-2007 08:00:00 12.12 C 9.02 g/m*3 12.12 C 0 km/h
610 23-09-2007 09:00:00 12.64 C 9.14 g/m*3 12.64 C 0 km/h
611 23-09-2007 10:00:00 14.5 C 9.78 g/m*3 14.5 C 0 km/h
612 23-09-2007 11:00:00 17.34 C 9.95 g/m*3 17.34 C 0 km/h
613 23-09-2007 12:00:00 19.9 C 10.27 g/m*3 19.9 C 0 km/h
614 23-09-2007 13:00:00 22.6 C 9.84 g/m*3 22.6 C 0 km/h
615 23-09-2007 14:00:00 25.54 C 8.64 g/m*3 25.54 C 0 km/h
616 23-09-2007 15:00:00 26.84 C 7.86 g/m*3 26.84 C 0 km/h
617 23-09-2007 16:00:00 29.5 C 7.32 g/m*3 29.5 C 0 km/h
618 23-09-2007 17:00:00 29.14 C 7.64 g/m*3 29.14 C 0 km/h
619 23-09-2007 18:00:00 26.7 C 7.85 g/m*3 26.7 C 0 km/h
620 23-09-2007 19:00:00 21.92 C 8.62 g/m*3 21.92 C 0 km/h
621 23-09-2007 20:00:00 19.64 C 8.56 g/m*3 19.64 C 0 km/h
622 23-09-2007 21:00:00 18.92 C 8.6 g/m*3 18.92 C 0 km/h
623 23-09-2007 22:00:00 17.78 C 8.55 g/m*3 17.78 C 0 km/h
624 23-09-2007 23:00:00 16.5 C 8.85 g/m*3 16.5 C 0 km/h
625 24-09-2007 00:00:00 15.94 C 9.1 g/m*3 15.94 C 0 km/h
Sensor: Nr:Datum:Temp:Abs-Feuchte:Windchill:Wind:
Aussen-T/F 626 24-09-2007 01:00:00 15.18 C 9.1 g/m*3 15.18 C 0 km/h
627 24-09-2007 02:00:00 14.5 C 9.2 g/m*3 14.5 C 0 km/h
628 24-09-2007 03:00:00 14.36 C 9.4 g/m*3 14.36 C 0 km/h
629 24-09-2007 04:00:00 13.72 C 9.32 g/m*3 13.72 C 0 km/h
630 24-09-2007 05:00:00 13.26 C 9.38 g/m*3 13.26 C 0 km/h
631 24-09-2007 06:00:00 12.84 C 9.39 g/m*3 12.84 C 0 km/h
632 24-09-2007 07:00:00 12.44 C 9.4 g/m*3 12.44 C 0 km/h
633 24-09-2007 08:00:00 12.5 C 9.59 g/m*3 12.5 C 0 km/h
634 24-09-2007 09:00:00 13.36 C 10.25 g/m*3 13.36 C 0 km/h
635 24-09-2007 10:00:00 16.04 C 10.73 g/m*3 16.04 C 0 km/h
636 24-09-2007 11:00:00 19.04 C 8.49 g/m*3 19.04 C 0 km/h
637 24-09-2007 12:00:00 21.54 C 7.79 g/m*3 21.54 C 0 km/h
638 24-09-2007 13:00:00 22.72 C 7.36 g/m*3 22.72 C 0 km/h
639 24-09-2007 14:00:00 23.76 C 7.51 g/m*3 23.76 C 0 km/h
640 24-09-2007 15:00:00 23.6 C 7.44 g/m*3 23.6 C 0 km/h
641 24-09-2007 16:00:00 22.72 C 7.24 g/m*3 22.72 C 0 km/h
642 24-09-2007 17:00:00 21.88 C 7.48 g/m*3 21.88 C 0 km/h
643 24-09-2007 18:00:00 20.48 C 8.07 g/m*3 20.48 C 0 km/h
644 24-09-2007 19:00:00 17.92 C 9.88 g/m*3 17.92 C 0 km/h
645 24-09-2007 20:00:00 17.12 C 10.29 g/m*3 17.12 C 0 km/h
646 24-09-2007 21:00:00 14.46 C 10.15 g/m*3 14.46 C 0 km/h
647 24-09-2007 22:00:00 14.38 C 10.59 g/m*3 14.38 C 0 km/h
648 24-09-2007 23:00:00 13.24 C 9.65 g/m*3 13.24 C 0 km/h
649 25-09-2007 00:00:00 12.12 C 9.47 g/m*3 12.12 C 0 km/h
650 25-09-2007 01:00:00 11.78 C 9.5 g/m*3 11.78 C 0 km/h
Sensor: Nr:Datum:Temp:Abs-Feuchte:Windchill:Wind:
Aussen-T/F 651 25-09-2007 02:00:00 11.74 C 9.54 g/m*3 11.74 C 0 km/h
652 25-09-2007 03:00:00 11.14 C 9.11 g/m*3 11.14 C 0 km/h
653 25-09-2007 04:00:00 10.76 C 8.87 g/m*3 10.76 C 0 km/h
654 25-09-2007 05:00:00 10.56 C 8.72 g/m*3 10.56 C 0 km/h
655 25-09-2007 06:00:00 10.22 C 8.5 g/m*3 10.22 C 0 km/h
656 25-09-2007 07:00:00 10.14 C 8.34 g/m*3 10.14 C 0 km/h
657 25-09-2007 08:00:00 10.06 C 8.38 g/m*3 10.06 C 0 km/h
658 25-09-2007 09:00:00 10.94 C 8.34 g/m*3 10.94 C 0 km/h
659 25-09-2007 10:00:00 12.62 C 7.71 g/m*3 12.62 C 0 km/h
660 25-09-2007 11:00:00 13.68 C 7.24 g/m*3 13.68 C 0 km/h
661 25-09-2007 12:00:00 14.42 C 6.76 g/m*3 14.42 C 0 km/h
662 25-09-2007 13:00:00 16.06 C 6.45 g/m*3 16.06 C 0 km/h
663 25-09-2007 14:00:00 15.84 C 6.34 g/m*3 15.84 C 0 km/h
664 25-09-2007 15:00:00 16.04 C 6.31 g/m*3 16.04 C 0 km/h
665 25-09-2007 16:00:00 17 C 6.08 g/m*3 17 C 0 km/h
666 25-09-2007 17:00:00 16.38 C 5.88 g/m*3 16.38 C 0 km/h
667 25-09-2007 18:00:00 16.82 C 5.84 g/m*3 16.82 C 0 km/h
668 25-09-2007 19:00:00 14.08 C 6.11 g/m*3 14.08 C 0 km/h
669 25-09-2007 20:00:00 12.36 C 6.41 g/m*3 12.36 C 0 km/h
670 25-09-2007 21:00:00 11.82 C 6.6 g/m*3 11.82 C 0 km/h
671 25-09-2007 22:00:00 11.8 C 6.69 g/m*3 11.8 C 0 km/h
672 25-09-2007 23:00:00 11.68 C 6.79 g/m*3 11.68 C 0 km/h
673 26-09-2007 00:00:00 11.52 C 6.89 g/m*3 11.52 C 0 km/h
674 26-09-2007 01:00:00 11.38 C 6.91 g/m*3 11.38 C 0 km/h
675 26-09-2007 02:00:00 11.3 C 7.14 g/m*3 11.3 C 0 km/h
Sensor: Nr:Datum:Temp:Abs-Feuchte:Windchill:Wind:
Aussen-T/F 676 26-09-2007 03:00:00 11.12 C 7.26 g/m*3 11.12 C 0 km/h
677 26-09-2007 04:00:00 10.82 C 7.2 g/m*3 10.82 C 0 km/h
678 26-09-2007 05:00:00 10.46 C 7.24 g/m*3 10.46 C 0 km/h
679 26-09-2007 06:00:00 9.94 C 7.64 g/m*3 9.94 C 0 km/h
680 26-09-2007 07:00:00 9.16 C 7.54 g/m*3 9.16 C 0 km/h
681 26-09-2007 08:00:00 10.14 C 7.98 g/m*3 10.14 C 0 km/h
682 26-09-2007 09:00:00 11.1 C 7.84 g/m*3 11.1 C 0 km/h
683 26-09-2007 10:00:00 13.62 C 7.28 g/m*3 13.62 C 0 km/h
684 26-09-2007 11:00:00 15.36 C 7.13 g/m*3 15.36 C 0 km/h
685 26-09-2007 12:00:00 15.16 C 7.12 g/m*3 15.16 C 0 km/h
686 26-09-2007 13:00:00 13.66 C 8.32 g/m*3 13.66 C 0 km/h
687 26-09-2007 14:00:00 14.98 C 9.37 g/m*3 14.98 C 0 km/h
688 26-09-2007 15:00:00 16.74 C 8.29 g/m*3 16.74 C 0 km/h
689 26-09-2007 16:00:00 17.6 C 7.62 g/m*3 17.6 C 0 km/h
690 26-09-2007 17:00:00 14.58 C 8.07 g/m*3 14.58 C 0 km/h
691 26-09-2007 18:00:00 12.44 C 8.94 g/m*3 12.44 C 0 km/h
692 26-09-2007 19:00:00 11.8 C 8.53 g/m*3 11.8 C 0 km/h
693 26-09-2007 20:00:00 11.4 C 8.4 g/m*3 11.4 C 0 km/h
694 26-09-2007 21:00:00 10.8 C 8.2 g/m*3 10.8 C 0 km/h
695 26-09-2007 22:00:00 9.9 C 8.01 g/m*3 9.9 C 0 km/h
696 26-09-2007 23:00:00 9.44 C 8.02 g/m*3 9.44 C 0 km/h
697 27-09-2007 00:00:00 9.58 C 8.14 g/m*3 9.58 C 0 km/h
698 27-09-2007 01:00:00 9.92 C 8.26 g/m*3 9.92 C 0 km/h
699 27-09-2007 02:00:00 9.84 C 8.19 g/m*3 9.84 C 0 km/h
700 27-09-2007 03:00:00 9.62 C 8.07 g/m*3 9.62 C 0 km/h
Sensor: Nr:Datum:Temp:Abs-Feuchte:Windchill:Wind:
Aussen-T/F 701 27-09-2007 04:00:00 9.42 C 8.06 g/m*3 9.42 C 0 km/h
702 27-09-2007 05:00:00 9.26 C 8.16 g/m*3 9.26 C 0 km/h
703 27-09-2007 06:00:00 9.2 C 8.22 g/m*3 9.2 C 0 km/h
704 27-09-2007 07:00:00 9.24 C 8.29 g/m*3 9.24 C 0 km/h
705 27-09-2007 08:00:00 9.42 C 8.42 g/m*3 9.42 C 0 km/h
706 27-09-2007 09:00:00 9.5 C 8.52 g/m*3 9.5 C 0 km/h
707 27-09-2007 10:00:00 9.62 C 8.62 g/m*3 9.62 C 0 km/h
708 27-09-2007 11:00:00 9.94 C 8.86 g/m*3 9.94 C 0 km/h
709 27-09-2007 12:00:00 10.16 C 8.98 g/m*3 10.16 C 0 km/h
710 27-09-2007 13:00:00 10.38 C 9.14 g/m*3 10.38 C 0 km/h
711 27-09-2007 14:00:00 10.7 C 9.33 g/m*3 10.7 C 0 km/h
712 27-09-2007 15:00:00 10.94 C 9.47 g/m*3 10.94 C 0 km/h
713 27-09-2007 16:00:00 11.08 C 9.56 g/m*3 11.08 C 0 km/h
714 27-09-2007 17:00:00 11.1 C 9.57 g/m*3 11.1 C 0 km/h
715 27-09-2007 18:00:00 11 C 9.51 g/m*3 11 C 0 km/h
716 27-09-2007 19:00:00 11 C 9.51 g/m*3 11 C 0 km/h
717 27-09-2007 20:00:00 11 C 9.51 g/m*3 11 C 0 km/h
718 27-09-2007 21:00:00 10.98 C 9.5 g/m*3 10.98 C 0 km/h
719 27-09-2007 22:00:00 10.8 C 9.39 g/m*3 10.8 C 0 km/h
720 27-09-2007 23:00:00 10.88 C 9.44 g/m*3 10.88 C 0 km/h
721 28-09-2007 00:00:00 10.8 C 9.39 g/m*3 10.8 C 0 km/h
722 28-09-2007 01:00:00 10.68 C 9.32 g/m*3 10.68 C 0 km/h
723 28-09-2007 02:00:00 10.625 C 9.29 g/m*3 10.63 C 0 km/h
724 28-09-2007 03:00:00 10.84 C 9.41 g/m*3 10.84 C 0 km/h
725 28-09-2007 04:00:00 10.82 C 9.4 g/m*3 10.82 C 0 km/h
Sensor: Nr:Datum:Temp:Abs-Feuchte:Windchill:Wind:
Aussen-T/F 726 28-09-2007 05:00:00 10.8 C 9.39 g/m*3 10.8 C 0 km/h
727 28-09-2007 06:00:00 10.74 C 9.35 g/m*3 10.74 C 0 km/h
728 28-09-2007 07:00:00 10.66 C 9.31 g/m*3 10.66 C 0 km/h
729 28-09-2007 08:00:00 10.6 C 9.27 g/m*3 10.6 C 0 km/h
730 28-09-2007 09:00:00 11.14 C 9.59 g/m*3 11.14 C 0 km/h
731 28-09-2007 10:00:00 11.78 C 9.8 g/m*3 11.78 C 0 km/h
732 28-09-2007 11:00:00 13.24 C 8.84 g/m*3 13.24 C 0 km/h
733 28-09-2007 12:00:00 14.18 C 8.12 g/m*3 14.18 C 0 km/h
734 28-09-2007 13:00:00 14.86 C 8.06 g/m*3 14.86 C 0 km/h
735 28-09-2007 14:00:00 15.78 C 7.48 g/m*3 15.78 C 0 km/h
736 28-09-2007 15:00:00 16.3 C 7.16 g/m*3 16.3 C 0 km/h
737 28-09-2007 16:00:00 16.1 C 7.02 g/m*3 16.1 C 0 km/h
738 28-09-2007 17:00:00 14.46 C 8.39 g/m*3 14.46 C 0 km/h
739 28-09-2007 18:00:00 13.5 C 8.4 g/m*3 13.5 C 0 km/h
740 28-09-2007 19:00:00 12.92 C 8.03 g/m*3 12.92 C 0 km/h
741 28-09-2007 20:00:00 12.52 C 7.49 g/m*3 12.52 C 0 km/h
742 28-09-2007 21:00:00 12.28 C 7.57 g/m*3 12.28 C 0 km/h
743 28-09-2007 22:00:00 12.1 C 7.76 g/m*3 12.1 C 0 km/h
744 28-09-2007 23:00:00 11.94 C 8.03 g/m*3 11.94 C 0 km/h

Maximal/Minimal-Werte vom 29.08.2007 - 28.09.2007

Sensor Min Max Avg
Temp
(Aussen-T/F)
5.6 °C
19-09-2007  03:43:03
30 °C
23-09-2007  16:22:01
14.73 °C
Abs-Feuchte
(Aussen-T/F)
4.43 g/m*3
29-08-2007  16:00:00
12.3 g/m*3
31-08-2007  13:00:00
8.2 g/m*3
Windchill
(Aussen-T/F)
5.72 C
19-09-2007  05:00:00
29.5 C
23-09-2007  16:00:00
14.7 C

Die Daten stammen von einer Davis Vantage Pro 2 Wetter-Station und werden unter Linux mit der Software wview2wettercgi und aufbereitet. Alle Angaben erfolgen ohne Gewähr für ihre Vollständigkeit oder Richtigkeit.
Kontakt: Rainer Krienke krienke@uni-koblenz.de . Meine Webseiten an der Uni Koblenz oder privat.
Version: $Revision: 0.78 $